Time;durP1;ratioP1;P1;durP2;ratioP2;P2;SDS_P1;SDS_P2;PMS_P1;PMS_P2;Temp;Humidity;BMP_temperature;BMP_pressure;BME280_temperature;BME280_humidity;BME280_pressure;Samples;Min_cycle;Max_cycle;Signal;HPM_P1;HPM_P2
2022/07/21 00:02:35;;;;;;;6.68;3.38;;;;;;;23.74;60.58;101544.78;6224491;28;20050;-77
2022/07/21 00:05:37;;;;;;;6.22;3.55;;;;;;;23.77;60.33;101544.50;6245263;28;20559;-77
2022/07/21 00:08:38;;;;;;;6.32;4.20;;;;;;;23.71;59.73;101545.94;6249207;28;20497;-79
2022/07/21 00:11:41;;;;;;;7.10;3.47;;;;;;;23.71;60.07;101529.81;6250077;28;20053;-77
2022/07/21 00:14:42;;;;;;;6.03;3.40;;;;;;;23.71;60.41;101515.53;6234845;28;20051;-79
2022/07/21 00:17:44;;;;;;;7.28;3.42;;;;;;;23.64;60.74;101499.19;6224586;28;20498;-78
2022/07/21 00:20:45;;;;;;;7.15;3.53;;;;;;;23.55;61.05;101471.38;6224212;28;20048;-77
2022/07/21 00:23:47;;;;;;;7.75;3.85;;;;;;;23.49;61.23;101447.00;6223919;28;20498;-78
2022/07/21 00:26:50;;;;;;;9.95;4.45;;;;;;;23.44;61.72;101412.56;6224038;28;20423;-77
2022/07/21 00:29:51;;;;;;;6.10;4.05;;;;;;;23.34;62.09;101403.69;6223606;28;20053;-77
2022/07/21 00:32:53;;;;;;;7.15;3.80;;;;;;;23.30;62.62;101421.09;6225639;28;20054;-78
2022/07/21 00:35:54;;;;;;;5.57;3.55;;;;;;;23.38;62.36;101423.03;6223912;28;20502;-78
2022/07/21 00:38:56;;;;;;;6.15;3.85;;;;;;;23.34;63.19;101413.59;6224145;28;20061;-78
2022/07/21 00:41:58;;;;;;;6.70;3.83;;;;;;;23.34;63.91;101400.16;6223834;28;20054;-78
2022/07/21 00:45:01;;;;;;;6.72;3.75;;;;;;;23.30;64.68;101410.38;6224949;28;20054;-79
2022/07/21 00:48:03;;;;;;;8.70;3.92;;;;;;;23.26;65.24;101382.16;6223557;28;20057;-78
2022/07/21 00:51:04;;;;;;;8.10;3.80;;;;;;;23.28;65.70;101388.22;6224089;28;20054;-78
2022/07/21 00:54:06;;;;;;;6.03;3.88;;;;;;;23.32;66.01;101373.50;6223846;28;20053;-77
2022/07/21 00:57:09;;;;;;;10.43;4.38;;;;;;;23.35;66.04;101381.25;6223556;28;20060;-76
2022/07/21 01:00:13;;;;;;;10.20;4.35;;;;;;;23.33;66.18;101383.25;6222988;28;20056;-78
2022/07/21 01:03:14;;;;;;;12.30;4.10;;;;;;;23.28;66.88;101378.31;6223466;28;20068;-78
2022/07/21 01:06:16;;;;;;;6.45;3.78;;;;;;;23.27;67.16;101378.47;6223509;28;20050;-77
2022/07/21 01:09:17;;;;;;;10.73;3.95;;;;;;;23.20;67.45;101378.22;6223019;28;20050;-77
2022/07/21 01:12:20;;;;;;;7.80;3.95;;;;;;;23.23;67.59;101385.97;6223289;28;20042;-78
2022/07/21 01:15:23;;;;;;;8.60;4.47;;;;;;;23.34;67.32;101386.75;6223814;28;20501;-78
2022/07/21 01:18:25;;;;;;;7.70;4.45;;;;;;;23.37;67.78;101390.00;6223150;28;20046;-78
2022/07/21 01:21:31;;;;;;;7.22;4.47;;;;;;;23.28;68.38;101386.38;6223003;28;20410;-77
2022/07/21 01:24:33;;;;;;;8.40;4.32;;;;;;;23.22;69.26;101400.38;6222888;28;20050;-78
2022/07/21 01:27:34;;;;;;;7.22;4.32;;;;;;;23.19;69.87;101399.81;6222659;28;20050;-77
2022/07/21 01:30:35;;;;;;;8.32;3.55;;;;;;;23.16;70.95;101400.94;6239323;28;20049;-75
2022/07/21 01:33:37;;;;;;;9.80;4.30;;;;;;;23.10;71.48;101398.03;6246660;28;20432;-77
2022/07/21 01:36:40;;;;;;;5.38;3.90;;;;;;;22.97;72.75;101399.19;6246204;28;20045;-77
2022/07/21 01:43:01;;;;;;;7.95;4.30;;;;;;;22.77;74.56;101405.59;6246873;28;20049;-77
2022/07/21 01:46:02;;;;;;;8.20;3.95;;;;;;;22.87;73.85;101410.91;6234961;28;20053;-77
2022/07/21 01:49:04;;;;;;;8.98;3.67;;;;;;;22.71;75.11;101415.06;6222385;28;20050;-77
2022/07/21 01:52:07;;;;;;;9.32;4.05;;;;;;;22.66;75.42;101414.63;6222473;28;20068;-78
2022/07/21 01:55:08;;;;;;;7.88;3.63;;;;;;;22.70;75.49;101396.44;6238495;28;20045;-77
2022/07/21 01:58:10;;;;;;;5.82;3.60;;;;;;;22.64;75.85;101386.28;6246579;28;20056;-77
2022/07/21 02:01:11;;;;;;;7.75;3.58;;;;;;;22.49;77.33;101332.34;6246261;28;20045;-75
2022/07/21 02:04:12;;;;;;;4.82;3.47;;;;;;;22.45;77.71;101331.78;6246819;28;20421;-78
2022/07/21 02:07:16;;;;;;;8.05;3.67;;;;;;;22.54;77.52;101360.38;6244801;28;20050;-77
2022/07/21 02:10:17;;;;;;;7.00;2.97;;;;;;;22.65;76.46;101390.66;6246395;28;20053;-75
2022/07/21 02:13:19;;;;;;;13.43;4.18;;;;;;;22.65;76.08;101412.94;6246773;28;20133;-77
2022/07/21 02:16:20;;;;;;;5.20;3.55;;;;;;;22.53;76.09;101416.78;6244338;28;20052;-77
2022/07/21 02:19:21;;;;;;;6.05;3.65;;;;;;;22.40;77.13;101401.00;6233358;28;20057;-77
2022/07/21 02:22:24;;;;;;;4.97;3.00;;;;;;;22.26;77.70;101398.75;6221881;28;20057;-78
2022/07/21 02:25:25;;;;;;;4.63;2.97;;;;;;;22.23;77.67;101381.13;6221714;28;20057;-77
2022/07/21 02:28:27;;;;;;;9.75;3.40;;;;;;;22.21;77.90;101340.28;6221770;28;20049;-77
2022/07/21 02:31:28;;;;;;;5.22;3.20;;;;;;;22.14;80.44;101301.66;6221586;28;20046;-77
2022/07/21 02:34:30;;;;;;;4.38;2.72;;;;;;;22.06;80.82;101292.63;6221810;28;20058;-77
2022/07/21 02:37:33;;;;;;;5.78;3.22;;;;;;;22.03;81.23;101334.78;6221518;28;20417;-77
2022/07/21 02:40:34;;;;;;;5.22;3.00;;;;;;;22.11;82.47;101376.03;6221446;28;20407;-77
2022/07/21 02:43:35;;;;;;;8.73;2.95;;;;;;;22.17;82.97;101408.50;6227359;28;20408;-77
2022/07/21 02:46:37;;;;;;;4.95;3.10;;;;;;;22.17;83.46;101413.00;6246026;28;20056;-77
2022/07/21 02:49:38;;;;;;;4.28;3.00;;;;;;;22.16;84.67;101425.50;6250607;28;20060;-77
2022/07/21 02:52:41;;;;;;;6.68;3.05;;;;;;;22.12;85.21;101415.22;6250845;28;20045;-77
2022/07/21 02:55:42;;;;;;;3.88;2.47;;;;;;;22.01;85.80;101398.28;6250294;28;20045;-77
2022/07/21 02:58:44;;;;;;;7.85;3.17;;;;;;;21.90;86.46;101387.75;6250808;28;20050;-77
2022/07/21 03:01:45;;;;;;;4.45;2.60;;;;;;;21.80;86.92;101384.19;6250081;28;20381;-78
2022/07/21 03:04:46;;;;;;;3.38;2.55;;;;;;;21.80;87.75;101384.19;6250005;28;20413;-77
2022/07/21 03:07:49;;;;;;;4.68;2.63;;;;;;;21.69;86.96;101382.50;6250325;28;20077;-77
2022/07/21 03:10:51;;;;;;;3.75;2.78;;;;;;;21.60;88.96;101382.47;6249830;28;20068;-77
2022/07/21 03:13:52;;;;;;;3.30;2.17;;;;;;;21.53;89.09;101390.22;6248471;28;20150;-78
2022/07/21 03:16:54;;;;;;;6.10;3.15;;;;;;;21.58;89.47;101381.78;6250156;28;20444;-78
2022/07/21 03:19:55;;;;;;;4.75;2.65;;;;;;;21.55;88.99;101371.34;6250165;28;20057;-77
2022/07/21 03:22:58;;;;;;;3.33;2.03;;;;;;;21.39;90.12;101361.16;6249829;28;20504;-77
2022/07/21 03:25:59;;;;;;;5.82;2.53;;;;;;;21.22;91.43;101357.31;6249875;28;20453;-77
2022/07/21 03:29:01;;;;;;;5.95;2.70;;;;;;;21.11;94.52;101355.56;6243448;28;20430;-77
2022/07/21 03:32:02;;;;;;;5.47;2.72;;;;;;;21.11;93.64;101328.81;6224810;28;20049;-77
2022/07/21 03:35:05;;;;;;;6.13;2.80;;;;;;;21.12;93.67;101295.78;6225104;28;20129;-77
2022/07/21 03:38:08;;;;;;;3.03;2.33;;;;;;;20.97;93.75;101273.94;6241974;28;20042;-77
2022/07/21 03:41:09;;;;;;;4.18;2.30;;;;;;;20.95;94.64;101302.63;6249516;28;20177;-76
2022/07/21 03:44:11;;;;;;;3.75;2.30;;;;;;;20.94;92.92;101295.59;6225927;28;20049;-76
2022/07/21 03:47:12;;;;;;;4.47;2.55;;;;;;;20.91;92.98;101293.19;6239754;28;20536;-76
2022/07/21 03:50:16;;;;;;;4.88;3.17;;;;;;;21.01;95.64;101304.75;6249256;28;20056;-76
2022/07/21 03:53:19;;;;;;;3.58;2.13;;;;;;;20.98;95.67;101306.84;6249128;28;20126;-76
2022/07/21 03:56:20;;;;;;;2.95;1.83;;;;;;;20.89;97.74;101303.19;6248991;28;20061;-77
2022/07/21 03:59:21;;;;;;;3.83;2.38;;;;;;;20.91;98.63;101303.88;6248478;28;20068;-76
2022/07/21 04:02:22;;;;;;;3.17;1.88;;;;;;;21.00;98.20;101323.59;6249010;28;20041;-76
2022/07/21 04:05:25;;;;;;;2.13;1.83;;;;;;;20.98;96.65;101325.53;6248746;28;20049;-76
2022/07/21 04:08:28;;;;;;;2.75;1.75;;;;;;;20.86;96.48;101329.31;6248862;28;20053;-77
2022/07/21 04:11:30;;;;;;;2.72;1.60;;;;;;;20.72;96.67;101317.16;6241413;28;20038;-77
2022/07/21 04:14:31;;;;;;;2.35;1.58;;;;;;;20.68;98.70;101310.41;6224151;28;20046;-77
2022/07/21 04:17:32;;;;;;;3.38;2.00;;;;;;;20.72;98.13;101315.34;6237172;28;20404;-77
2022/07/21 04:20:34;;;;;;;4.13;2.17;;;;;;;20.78;97.27;101305.94;6245634;28;20049;-76
2022/07/21 04:23:37;;;;;;;5.97;2.05;;;;;;;20.77;97.27;101306.91;6235623;28;20038;-76
2022/07/21 04:26:38;;;;;;;2.78;2.05;;;;;;;20.78;96.87;101309.44;6237767;28;20050;-76
2022/07/21 04:29:39;;;;;;;4.63;1.92;;;;;;;20.76;96.16;101289.22;6239610;28;20073;-76
2022/07/21 04:32:41;;;;;;;2.42;1.73;;;;;;;20.70;95.66;101295.91;6235927;28;20045;-77
2022/07/21 04:35:43;;;;;;;3.55;1.90;;;;;;;20.67;94.87;101306.88;6234849;28;20416;-75
2022/07/21 04:38:45;;;;;;;4.40;2.05;;;;;;;20.73;95.30;101316.19;6245883;28;20050;-76
2022/07/21 04:41:47;;;;;;;3.30;1.55;;;;;;;20.86;94.64;101327.47;6236297;28;20413;-77
2022/07/21 04:44:48;;;;;;;3.67;1.80;;;;;;;20.97;93.43;101342.56;6247915;28;20045;-77
2022/07/21 04:47:52;;;;;;;5.05;2.38;;;;;;;21.06;91.98;101367.63;6247692;28;20052;-76
2022/07/21 04:50:54;;;;;;;2.50;1.52;;;;;;;21.00;91.49;101367.19;6244144;28;20123;-76
2022/07/21 04:53:57;;;;;;;3.22;1.90;;;;;;;21.02;91.64;101388.44;6233228;28;20508;-76
2022/07/21 04:56:59;;;;;;;3.38;1.88;;;;;;;20.93;92.83;101418.63;6225989;28;20052;-76
2022/07/21 05:00:02;;;;;;;3.35;1.40;;;;;;;20.81;94.23;101428.56;6223439;28;20050;-77
2022/07/21 05:03:04;;;;;;;4.25;1.85;;;;;;;20.77;94.78;101417.28;6222978;28;20053;-77
2022/07/21 05:06:05;;;;;;;4.15;1.88;;;;;;;20.71;96.49;101420.50;6226377;28;20045;-77
2022/07/21 05:09:09;;;;;;;2.75;1.80;;;;;;;20.73;96.86;101428.38;6233327;28;20571;-77
2022/07/21 05:12:11;;;;;;;2.78;1.50;;;;;;;20.73;97.32;101428.38;6235036;28;20049;-77
2022/07/21 05:15:13;;;;;;;3.47;2.08;;;;;;;20.76;97.69;101436.97;6222705;28;20056;-77
2022/07/21 05:18:14;;;;;;;2.53;1.73;;;;;;;20.80;98.41;101442.03;6223122;28;20141;-77
2022/07/21 05:21:16;;;;;;;2.72;1.92;;;;;;;20.80;98.70;101442.03;6230234;28;20049;-77
2022/07/21 05:24:19;;;;;;;3.50;1.98;;;;;;;20.77;99.32;101433.31;6233833;28;20052;-77
2022/07/21 05:27:20;;;;;;;5.65;2.45;;;;;;;20.77;99.32;101433.31;6234513;28;20049;-77
2022/07/21 05:30:21;;;;;;;4.38;1.98;;;;;;;20.66;99.66;101432.53;6232812;28;20223;-77
2022/07/21 05:33:23;;;;;;;4.13;1.77;;;;;;;20.65;99.93;101438.84;6237159;28;20132;-77
2022/07/21 05:36:24;;;;;;;4.85;1.95;;;;;;;20.63;99.85;101422.97;6232122;28;20045;-77
2022/07/21 05:39:27;;;;;;;5.20;2.33;;;;;;;20.62;100.00;101418.63;6233210;28;20049;-77
2022/07/21 05:42:28;;;;;;;3.30;2.00;;;;;;;20.62;100.00;101421.28;6233230;28;20057;-77
2022/07/21 05:45:29;;;;;;;2.85;2.17;;;;;;;20.59;100.00;101431.38;6233084;28;20072;-76
2022/07/21 05:48:31;;;;;;;4.50;2.00;;;;;;;20.57;100.00;101428.81;6239432;28;20049;-77
2022/07/21 05:51:32;;;;;;;2.88;1.80;;;;;;;20.59;100.00;101448.25;6240943;28;20046;-77
2022/07/21 05:54:35;;;;;;;4.38;2.15;;;;;;;20.63;100.00;101435.47;6234929;28;20046;-76
2022/07/21 05:57:37;;;;;;;3.42;2.08;;;;;;;20.58;100.00;101443.88;6233634;28;20050;-77
2022/07/21 06:00:39;;;;;;;5.32;2.40;;;;;;;20.51;100.00;101442.69;6231765;28;20049;-77
2022/07/21 06:03:42;;;;;;;4.30;2.10;;;;;;;20.45;100.00;101444.03;6226781;28;20056;-77
2022/07/21 06:06:43;;;;;;;3.33;2.38;;;;;;;20.54;100.00;101436.25;6222095;28;20426;-77
2022/07/21 06:09:46;;;;;;;4.80;2.30;;;;;;;20.60;100.00;101455.28;6234186;28;20061;-77
2022/07/21 06:12:48;;;;;;;6.30;3.03;;;;;;;20.51;100.00;101451.53;6246537;28;20052;-76
2022/07/21 06:15:49;;;;;;;3.05;2.30;;;;;;;20.48;100.00;101470.50;6246315;28;20052;-77
2022/07/21 06:18:50;;;;;;;4.78;2.22;;;;;;;20.42;100.00;101475.47;6246671;28;20045;-77
2022/07/21 06:21:52;;;;;;;3.53;2.53;;;;;;;20.31;100.00;101486.22;6247861;28;20052;-78
2022/07/21 06:24:54;;;;;;;5.78;2.58;;;;;;;20.28;100.00;101484.63;6251791;28;20057;-79
2022/07/21 06:27:56;;;;;;;3.88;2.50;;;;;;;20.24;100.00;101480.50;6252337;28;20085;-77
2022/07/21 06:30:57;;;;;;;7.82;3.08;;;;;;;20.19;100.00;101482.72;6251800;28;20060;-77
2022/07/21 06:33:58;;;;;;;5.45;2.47;;;;;;;20.16;100.00;101480.28;6251931;28;20053;-78
2022/07/21 06:36:59;;;;;;;3.55;2.28;;;;;;;20.13;100.00;101484.06;6250895;28;20049;-78
2022/07/21 06:40:03;;;;;;;2.63;2.05;;;;;;;20.11;100.00;101487.81;6226940;28;20413;-79
2022/07/21 06:43:04;;;;;;;4.93;2.30;;;;;;;20.06;100.00;101485.53;6227227;28;20498;-77
2022/07/21 06:46:06;;;;;;;4.57;2.70;;;;;;;19.98;100.00;101490.63;6226550;28;20057;-75
2022/07/21 06:49:07;;;;;;;7.60;2.70;;;;;;;19.92;100.00;101493.81;6226506;28;20046;-75
2022/07/21 06:52:08;;;;;;;4.28;2.67;;;;;;;19.87;100.00;101499.53;6226213;28;20557;-75
2022/07/21 06:55:11;;;;;;;8.10;2.30;;;;;;;19.92;100.00;101499.16;6226527;28;20057;-77
2022/07/21 06:58:15;;;;;;;3.95;2.17;;;;;;;19.96;100.00;101489.94;6241365;28;20046;-77
2022/07/21 07:01:18;;;;;;;5.63;2.45;;;;;;;19.99;100.00;101481.69;6249818;28;20044;-77
2022/07/21 07:04:19;;;;;;;2.35;1.60;;;;;;;19.99;100.00;101474.53;6249598;28;20128;-77
2022/07/21 07:07:21;;;;;;;4.03;2.17;;;;;;;19.95;100.00;101475.75;6240689;28;20061;-76
2022/07/21 07:10:24;;;;;;;5.35;1.98;;;;;;;20.00;100.00;101483.38;6225829;28;20501;-77
2022/07/21 07:13:25;;;;;;;3.38;2.03;;;;;;;19.92;100.00;101499.16;6230448;28;20493;-77
2022/07/21 07:16:26;;;;;;;3.17;2.00;;;;;;;19.90;100.00;101501.09;6249893;28;20512;-77
2022/07/21 07:19:28;;;;;;;2.75;1.70;;;;;;;19.83;100.00;101500.75;6250028;28;20053;-77
2022/07/21 07:22:29;;;;;;;5.25;2.00;;;;;;;19.89;100.00;101499.38;6249953;28;20052;-77
2022/07/21 07:25:32;;;;;;;3.60;1.77;;;;;;;19.96;100.00;101509.44;6249869;28;20045;-77
2022/07/21 07:28:34;;;;;;;2.28;1.95;;;;;;;19.96;100.00;101511.28;6247215;28;20045;-77
2022/07/21 07:31:36;;;;;;;4.18;2.60;;;;;;;20.04;100.00;101503.50;6247602;28;20521;-78
2022/07/21 07:34:37;;;;;;;3.10;2.08;;;;;;;20.17;100.00;101504.19;6246777;28;20037;-78
2022/07/21 07:37:40;;;;;;;2.30;1.65;;;;;;;20.35;100.00;101509.84;6249198;28;20045;-78
2022/07/21 07:40:43;;;;;;;2.28;1.73;;;;;;;20.50;100.00;101513.09;6250523;28;20045;-77
2022/07/21 07:43:44;;;;;;;2.95;2.00;;;;;;;20.62;100.00;101508.53;6250980;28;20053;-79
2022/07/21 07:46:46;;;;;;;6.57;2.20;;;;;;;20.60;100.00;101511.34;6228138;28;20572;-79
2022/07/21 07:49:49;;;;;;;4.07;2.25;;;;;;;20.58;100.00;101521.34;6225875;28;20050;-78
2022/07/21 07:52:50;;;;;;;2.85;1.83;;;;;;;20.46;100.00;101516.97;6225490;28;20402;-77
2022/07/21 07:55:53;;;;;;;2.40;1.20;;;;;;;20.45;100.00;101518.78;6224872;28;20049;-77
2022/07/21 07:58:54;;;;;;;1.63;1.20;;;;;;;20.49;100.00;101522.94;6225369;28;20050;-77
2022/07/21 08:01:55;;;;;;;1.20;1.10;;;;;;;20.55;100.00;101526.06;6231150;28;20075;-76
2022/07/21 08:04:57;;;;;;;1.38;1.10;;;;;;;20.60;100.00;101531.88;6247331;28;20042;-77
2022/07/21 08:07:59;;;;;;;1.33;1.10;;;;;;;20.60;100.00;101539.88;6248988;28;20465;-77
2022/07/21 08:11:01;;;;;;;2.63;1.20;;;;;;;20.54;100.00;101529.72;6249020;28;20052;-77
2022/07/21 08:14:03;;;;;;;0.98;0.90;;;;;;;20.51;100.00;101528.16;6249198;28;20056;-78
2022/07/21 08:17:04;;;;;;;2.17;0.95;;;;;;;20.47;100.00;101532.00;6249086;28;20058;-78
2022/07/21 08:20:06;;;;;;;1.45;1.05;;;;;;;20.40;100.00;101533.50;6249005;28;20046;-77
2022/07/21 08:23:08;;;;;;;2.75;1.38;;;;;;;20.45;100.00;101520.63;6248827;28;20080;-77
2022/07/21 08:26:10;;;;;;;1.45;0.95;;;;;;;20.58;100.00;101524.00;6248906;28;20056;-77
2022/07/21 08:29:12;;;;;;;2.00;1.27;;;;;;;20.69;100.00;101520.44;6248550;28;20493;-77
2022/07/21 08:32:13;;;;;;;1.55;1.20;;;;;;;20.71;100.00;101524.69;6248797;28;20056;-76
2022/07/21 08:35:14;;;;;;;1.48;1.10;;;;;;;20.73;100.00;101527.22;6246865;28;20045;-77
2022/07/21 08:38:16;;;;;;;1.20;1.05;;;;;;;20.83;100.00;101532.63;6223725;28;20065;-76
2022/07/21 08:41:19;;;;;;;1.15;1.00;;;;;;;20.85;100.00;101541.34;6223717;28;20168;-78
2022/07/21 08:44:21;;;;;;;1.75;1.10;;;;;;;20.80;100.00;101535.53;6223395;28;20073;-76
2022/07/21 08:47:25;;;;;;;2.35;1.00;;;;;;;20.84;100.00;101537.81;6223067;28;20053;-76
2022/07/21 08:50:28;;;;;;;1.42;0.90;;;;;;;20.88;100.00;101541.94;6223608;28;20050;-77
2022/07/21 08:53:29;;;;;;;2.72;1.08;;;;;;;20.90;100.00;101539.16;6223679;28;20042;-77
2022/07/21 08:56:32;;;;;;;1.23;1.00;;;;;;;20.95;100.00;101531.59;6223112;28;20056;-77
2022/07/21 08:59:33;;;;;;;0.70;0.70;;;;;;;21.05;100.00;101529.84;6236710;28;20049;-77
2022/07/21 09:02:37;;;;;;;1.15;1.05;;;;;;;21.12;100.00;101531.00;6247292;28;20068;-77
2022/07/21 09:05:38;;;;;;;1.98;1.33;;;;;;;21.06;100.00;101533.34;6243876;28;20060;-76
2022/07/21 09:08:42;;;;;;;3.08;1.70;;;;;;;20.96;100.00;101530.63;6223143;28;20057;-77
2022/07/21 09:11:45;;;;;;;1.23;1.13;;;;;;;20.91;100.00;101531.00;6239860;28;20053;-76
2022/07/21 09:14:46;;;;;;;1.30;0.98;;;;;;;20.88;100.00;101535.75;6247398;28;20045;-78
2022/07/21 09:18:05;;;;;;;2.35;1.42;;;;;;;20.83;100.00;101548.66;6247398;28;20053;-77
2022/07/21 09:21:06;;;;;;;4.30;1.93;;;;;;;20.81;100.00;101542.59;6247316;28;20049;-76
2022/07/21 09:24:12;;;;;;;2.95;1.73;;;;;;;20.92;100.00;101540.72;6247289;28;20038;-76
2022/07/21 09:27:17;;;;;;;1.45;1.15;;;;;;;21.06;100.00;101541.38;6247200;28;20524;-77
2022/07/21 09:30:18;;;;;;;1.98;1.60;;;;;;;21.16;100.00;101526.22;6246754;28;20053;-77
2022/07/21 09:33:25;;;;;;;5.43;3.05;;;;;;;21.29;100.00;101526.88;6241876;28;20046;-78
2022/07/21 09:36:26;;;;;;;3.80;2.03;;;;;;;21.46;100.00;101531.66;6245777;28;20364;-77
2022/07/21 09:39:45;;;;;;;3.38;2.25;;;;;;;21.59;100.00;101526.09;6247355;28;20056;-77
2022/07/21 09:42:49;;;;;;;3.22;2.20;;;;;;;21.76;100.00;101528.13;6246701;28;20493;-77
2022/07/21 09:45:51;;;;;;;1.73;1.60;;;;;;;21.87;99.62;101529.84;6247110;28;20057;-77
2022/07/21 09:48:54;;;;;;;3.13;2.35;;;;;;;21.84;98.90;101527.44;6246575;28;20049;-76
2022/07/21 09:51:56;;;;;;;4.43;2.30;;;;;;;21.99;99.14;101522.56;6246836;28;20049;-77
2022/07/21 09:54:59;;;;;;;4.70;2.88;;;;;;;22.18;93.83;101519.09;6246568;28;20049;-78
2022/07/21 09:58:02;;;;;;;5.30;3.45;;;;;;;22.33;93.73;101522.22;6239426;28;20045;-77
2022/07/21 10:01:04;;;;;;;3.70;2.78;;;;;;;22.23;91.88;101520.38;6246891;28;20061;-77
2022/07/21 10:04:06;;;;;;;4.35;2.78;;;;;;;22.28;92.68;101502.06;6227550;28;20042;-77
2022/07/21 10:07:08;;;;;;;3.92;2.83;;;;;;;22.37;92.75;101510.25;6221948;28;20049;-76
2022/07/21 10:10:10;;;;;;;6.68;2.85;;;;;;;22.46;92.82;101512.09;6232093;28;20053;-76
2022/07/21 10:13:13;;;;;;;3.55;2.75;;;;;;;22.61;91.21;101509.81;6246625;28;20057;-77
2022/07/21 10:16:15;;;;;;;4.32;2.95;;;;;;;22.82;90.25;101515.03;6246349;28;20072;-77
2022/07/21 10:19:22;;;;;;;4.43;2.80;;;;;;;22.91;89.36;101508.84;6246767;28;20050;-77
2022/07/21 10:22:35;;;;;;;4.47;2.95;;;;;;;22.99;88.90;101511.66;6246731;28;20068;-78
2022/07/21 10:25:37;;;;;;;7.78;3.45;;;;;;;22.93;88.16;101506.88;6246789;28;20088;-77
2022/07/21 10:28:40;;;;;;;3.92;3.20;;;;;;;22.88;88.22;101509.94;6246317;28;20045;-78
2022/07/21 10:31:43;;;;;;;4.38;3.45;;;;;;;22.88;88.44;101501.06;6238842;28;20049;-74
2022/07/21 10:34:44;;;;;;;5.47;3.90;;;;;;;22.92;88.66;101510.53;6221048;28;20096;-74
2022/07/21 10:37:50;;;;;;;6.53;4.47;;;;;;;22.88;87.64;101496.53;6221603;28;20046;-78
2022/07/21 10:40:52;;;;;;;6.68;3.90;;;;;;;22.85;87.23;101501.38;6221534;28;20050;-77
2022/07/21 10:43:54;;;;;;;7.50;4.45;;;;;;;22.87;87.40;101492.16;6221464;28;20075;-77
2022/07/21 10:47:03;;;;;;;5.30;3.83;;;;;;;23.23;83.13;101492.41;6221480;28;20085;-78
2022/07/21 10:50:07;;;;;;;5.63;3.95;;;;;;;23.47;79.34;101491.88;6221979;28;20061;-76
2022/07/21 10:53:13;;;;;;;4.68;3.80;;;;;;;23.57;78.05;101491.84;6221735;28;20441;-77
2022/07/21 10:56:28;;;;;;;7.55;3.97;;;;;;;23.80;78.17;101482.47;6222034;28;20060;-78
2022/07/21 11:00:11;;;;;;;6.38;4.80;;;;;;;24.06;74.91;101487.94;6222215;28;20115;-77
2022/07/21 11:03:19;;;;;;;7.65;3.67;;;;;;;23.95;75.42;101469.38;6246072;28;20057;-78
2022/07/21 11:06:22;;;;;;;6.28;4.40;;;;;;;23.99;75.63;101466.22;6246505;28;20053;-77
2022/07/21 11:09:24;;;;;;;5.78;4.18;;;;;;;23.99;75.39;101471.59;6248713;28;20045;-77
2022/07/21 11:12:58;;;;;;;8.68;4.57;;;;;;;23.84;74.85;101465.03;6250150;28;20053;-75
2022/07/21 11:16:01;;;;;;;6.43;4.28;;;;;;;23.78;73.67;101465.63;6251259;28;20053;-75
2022/07/21 11:19:03;;;;;;;7.45;4.60;;;;;;;23.56;74.27;101469.53;6250340;28;20053;-77
2022/07/21 11:22:07;;;;;;;10.27;4.00;;;;;;;23.63;74.28;101465.28;6249878;28;20425;-77
2022/07/21 11:25:08;;;;;;;11.57;4.75;;;;;;;24.11;70.57;101450.72;6250488;28;20052;-78
2022/07/21 11:28:17;;;;;;;6.95;4.68;;;;;;;24.47;70.05;101454.28;6250454;28;20053;-77
2022/07/21 11:31:23;;;;;;;7.05;4.57;;;;;;;24.96;70.17;101448.41;6234244;28;20076;-76
2022/07/21 11:34:25;;;;;;;6.18;4.25;;;;;;;25.12;68.99;101445.88;6225595;28;20056;-77
2022/07/21 11:37:29;;;;;;;8.05;5.20;;;;;;;25.44;67.93;101457.81;6225349;28;20049;-77
2022/07/21 11:40:31;;;;;;;4.65;3.97;;;;;;;25.80;64.42;101445.84;6235638;28;20057;-77
2022/07/21 11:43:40;;;;;;;5.53;3.85;;;;;;;26.26;64.05;101434.63;6249264;28;20045;-75
2022/07/21 11:46:47;;;;;;;6.22;3.85;;;;;;;26.21;62.23;101435.13;6224669;28;20050;-75
2022/07/21 11:49:52;;;;;;;9.13;4.32;;;;;;;25.92;63.01;101440.13;6225626;28;20050;-78
2022/07/21 11:52:54;;;;;;;5.25;3.65;;;;;;;25.79;63.15;101443.28;6225043;28;20405;-77
2022/07/21 11:55:55;;;;;;;6.45;4.45;;;;;;;25.39;64.93;101436.75;6225201;28;20046;-75
2022/07/21 11:59:10;;;;;;;4.72;3.72;;;;;;;24.79;67.27;101434.84;6225654;28;20061;-75
2022/07/21 12:02:15;;;;;;;7.68;3.97;;;;;;;24.74;68.83;101421.03;6224787;28;20089;-75
2022/07/21 12:05:16;;;;;;;7.88;4.18;;;;;;;24.87;68.87;101428.69;6244414;28;20037;-74
2022/07/21 12:08:18;;;;;;;9.35;3.10;;;;;;;24.87;66.48;101433.22;6249159;28;20052;-75
2022/07/21 12:11:19;;;;;;;3.78;2.90;;;;;;;24.86;66.40;101442.31;6249310;28;20049;-75
2022/07/21 12:14:22;;;;;;;4.70;3.28;;;;;;;25.37;66.31;101449.50;6249100;28;20045;-76
2022/07/21 12:17:36;;;;;;;3.10;2.22;;;;;;;25.29;63.55;101461.06;6250018;28;20136;-76
2022/07/21 12:20:40;;;;;;;4.03;2.40;;;;;;;24.94;65.97;101462.03;6248210;28;20053;-76
2022/07/21 12:23:42;;;;;;;3.53;2.42;;;;;;;24.84;67.69;101449.66;6249065;28;20481;-75
2022/07/21 12:26:44;;;;;;;4.13;2.35;;;;;;;25.02;65.87;101456.69;6248739;28;20046;-76
2022/07/21 12:29:45;;;;;;;4.57;2.30;;;;;;;24.82;67.62;101446.31;6233082;28;20064;-76
2022/07/21 12:32:49;;;;;;;2.30;2.08;;;;;;;24.67;67.71;101441.50;6224349;28;20053;-76
2022/07/21 12:36:00;;;;;;;5.03;3.25;;;;;;;24.42;65.85;101451.22;6224731;28;20050;-76
2022/07/21 12:39:14;;;;;;;3.75;2.60;;;;;;;24.20;66.77;101460.53;6224680;28;20061;-75
2022/07/21 12:42:29;;;;;;;7.28;2.95;;;;;;;24.09;68.00;101444.66;6225309;28;20056;-75
2022/07/21 12:45:31;;;;;;;5.82;3.05;;;;;;;24.20;68.06;101444.44;6224757;28;20057;-76
2022/07/21 12:48:36;;;;;;;3.90;2.65;;;;;;;24.59;67.78;101444.13;6224188;28;20045;-76
2022/07/21 12:51:38;;;;;;;4.60;2.78;;;;;;;25.24;65.44;101451.78;6224314;28;20049;-76
2022/07/21 12:54:39;;;;;;;3.83;2.80;;;;;;;25.61;63.33;101443.38;6223868;28;20045;-76
2022/07/21 12:57:41;;;;;;;3.83;2.33;;;;;;;25.89;63.38;101449.41;6228349;28;20045;-76
2022/07/21 13:00:42;;;;;;;3.97;2.53;;;;;;;25.78;62.44;101447.84;6247726;28;20421;-76
2022/07/21 13:03:46;;;;;;;2.65;2.22;;;;;;;25.62;63.93;101446.91;6247678;28;20045;-76
2022/07/21 13:06:47;;;;;;;4.00;2.63;;;;;;;25.53;65.76;101459.53;6247303;28;20501;-76
2022/07/21 13:09:48;;;;;;;2.70;1.77;;;;;;;24.89;66.67;101485.00;6247946;28;20049;-76
2022/07/21 13:12:50;;;;;;;3.42;2.33;;;;;;;24.20;66.97;101491.94;6247875;28;20045;-73
2022/07/21 13:15:51;;;;;;;7.72;2.30;;;;;;;23.82;74.30;101507.31;6248071;28;20053;-74
2022/07/21 13:18:55;;;;;;;3.13;1.92;;;;;;;23.42;75.51;101507.59;6249155;28;20057;-75
2022/07/21 13:21:57;;;;;;;3.17;1.88;;;;;;;23.03;77.50;101505.88;6248913;28;20056;-75
2022/07/21 13:24:58;;;;;;;4.20;1.45;;;;;;;22.53;81.22;101503.34;6248366;28;20049;-75
2022/07/21 13:27:59;;;;;;;3.65;2.00;;;;;;;21.93;89.39;101502.53;6246099;28;20075;-75
2022/07/21 13:31:01;;;;;;;3.03;2.30;;;;;;;21.65;97.58;101497.94;6247961;28;20049;-74
2022/07/21 13:34:06;;;;;;;4.15;2.42;;;;;;;21.58;100.00;101503.00;6247445;28;20412;-77
2022/07/21 13:37:11;;;;;;;4.88;3.22;;;;;;;21.67;100.00;101496.84;6248082;28;20045;-77
2022/07/21 13:40:12;;;;;;;4.32;3.10;;;;;;;21.73;100.00;101488.25;6247944;28;20054;-77
2022/07/21 13:43:16;;;;;;;4.20;3.05;;;;;;;21.74;100.00;101483.75;6248121;28;20049;-77
2022/07/21 13:46:17;;;;;;;6.78;3.10;;;;;;;21.83;100.00;101476.72;6247514;28;20049;-77
2022/07/21 13:49:20;;;;;;;5.32;3.35;;;;;;;21.92;100.00;101470.56;6247551;28;20516;-77
2022/07/21 13:52:21;;;;;;;3.40;2.50;;;;;;;22.00;100.00;101468.03;6247227;28;20052;-75
2022/07/21 13:55:22;;;;;;;3.65;2.90;;;;;;;22.12;100.00;101458.06;6247468;28;20075;-76
2022/07/21 13:58:24;;;;;;;4.97;3.20;;;;;;;22.25;100.00;101447.94;6245693;28;20052;-75
2022/07/21 14:01:25;;;;;;;7.80;2.88;;;;;;;22.31;98.00;101446.53;6247638;28;20046;-77
2022/07/21 14:04:28;;;;;;;3.22;2.40;;;;;;;22.54;97.20;101450.63;6244675;28;20044;-78
2022/07/21 14:07:29;;;;;;;4.32;2.55;;;;;;;23.15;95.78;101439.50;6246929;28;20049;-75
2022/07/21 14:10:33;;;;;;;3.65;2.42;;;;;;;23.85;91.44;101429.16;6246166;28;20046;-75